createdAt,value
2023-05-15T00:00:11.104Z,21.08
2023-05-15T00:01:11.205Z,21.04
2023-05-15T00:02:11.362Z,21.03
2023-05-15T00:03:32.430Z,21.04
2023-05-15T00:04:11.483Z,21.04
2023-05-15T00:05:11.638Z,21.03
2023-05-15T00:06:11.648Z,21.04
2023-05-15T00:07:11.728Z,21.04
2023-05-15T00:08:11.812Z,21.05
2023-05-15T00:09:11.863Z,21.06
2023-05-15T00:10:11.922Z,21.07
2023-05-15T00:11:12.038Z,21.07
2023-05-15T00:12:12.086Z,21.07
2023-05-15T00:13:12.185Z,21.07
2023-05-15T00:14:12.255Z,21.08
2023-05-15T00:15:33.314Z,21.08
2023-05-15T00:16:12.425Z,21.07
2023-05-15T00:17:12.494Z,21.06
2023-05-15T00:18:12.588Z,21.06
2023-05-15T00:19:12.765Z,21.06
2023-05-15T00:20:12.728Z,21.07
2023-05-15T00:21:12.828Z,21.07
2023-05-15T00:22:12.909Z,21.07
2023-05-15T00:23:13.017Z,21.07
2023-05-15T00:24:13.094Z,21.07
2023-05-15T00:25:13.156Z,21.07
2023-05-15T00:26:13.229Z,21.07
2023-05-15T00:27:13.304Z,21.07
2023-05-15T00:28:13.376Z,21.07
2023-05-15T00:29:13.451Z,21.07
2023-05-15T00:30:13.533Z,21.06
2023-05-15T00:31:13.672Z,21.06
2023-05-15T00:32:13.708Z,21.06
2023-05-15T00:33:13.789Z,21.05
2023-05-15T00:34:13.862Z,21.05
2023-05-15T00:35:13.935Z,21.05
2023-05-15T00:36:14.016Z,21.05
2023-05-15T00:37:14.081Z,21.04
2023-05-15T00:38:14.158Z,21.04
2023-05-15T00:39:14.251Z,21.03
2023-05-15T00:40:35.335Z,21.02
2023-05-15T00:41:14.406Z,21.01
2023-05-15T00:42:14.485Z,21.00
2023-05-15T00:43:15.216Z,21.00
2023-05-15T00:44:14.623Z,21.00
2023-05-15T00:45:14.704Z,21.00
2023-05-15T00:46:14.780Z,21.01
2023-05-15T00:47:14.903Z,21.01
2023-05-15T00:48:14.934Z,21.01
2023-05-15T00:49:15.008Z,21.01
2023-05-15T00:50:15.092Z,21.01
2023-05-15T00:51:15.150Z,21.01
2023-05-15T00:52:15.217Z,21.00
2023-05-15T00:53:15.297Z,21.00
2023-05-15T00:54:15.449Z,20.99
2023-05-15T00:55:15.479Z,20.99
2023-05-15T00:56:15.535Z,20.99
2023-05-15T00:57:15.614Z,20.99
2023-05-15T00:58:36.721Z,20.98
2023-05-15T00:59:15.790Z,20.96
2023-05-15T01:00:15.930Z,20.95
2023-05-15T01:01:15.978Z,20.94
2023-05-15T01:02:16.062Z,20.94
2023-05-15T01:03:16.123Z,20.95
2023-05-15T01:04:16.179Z,20.95
2023-05-15T01:05:37.263Z,20.95
2023-05-15T01:06:16.328Z,20.95
2023-05-15T01:07:16.408Z,20.94
2023-05-15T01:08:16.512Z,20.94
2023-05-15T01:09:17.185Z,20.95
2023-05-15T01:10:16.677Z,20.96
2023-05-15T01:11:16.764Z,20.97
2023-05-15T01:12:16.838Z,20.97
2023-05-15T01:13:16.914Z,20.98
2023-05-15T01:14:16.997Z,20.99
2023-05-15T01:15:17.098Z,20.99
2023-05-15T01:16:17.166Z,20.99
2023-05-15T01:17:17.262Z,21.00
2023-05-15T01:18:17.402Z,21.01
2023-05-15T01:19:17.456Z,21.02
2023-05-15T01:20:17.506Z,21.02
2023-05-15T01:21:18.187Z,21.02
2023-05-15T01:22:17.684Z,21.02
2023-05-15T01:23:17.753Z,21.02
2023-05-15T01:24:17.884Z,21.01
2023-05-15T01:25:17.912Z,21.02
2023-05-15T01:26:18.020Z,21.02
2023-05-15T01:27:18.109Z,21.02
2023-05-15T01:28:18.161Z,21.01
2023-05-15T01:29:18.242Z,21.01
2023-05-15T01:30:18.304Z,21.00
2023-05-15T01:31:18.390Z,20.99
2023-05-15T01:32:19.385Z,20.99
2023-05-15T01:33:18.609Z,20.99
2023-05-15T01:34:18.608Z,20.99
2023-05-15T01:35:18.683Z,20.98
2023-05-15T01:36:18.795Z,20.98
2023-05-15T01:37:18.823Z,20.98
2023-05-15T01:38:18.892Z,20.98
2023-05-15T01:39:18.959Z,20.98
2023-05-15T01:40:19.034Z,20.97
2023-05-15T01:41:19.139Z,20.97
2023-05-15T01:42:19.213Z,20.97
2023-05-15T01:43:19.272Z,20.97
2023-05-15T01:44:19.355Z,20.96
2023-05-15T01:45:20.182Z,20.96
2023-05-15T01:46:19.512Z,20.95
2023-05-15T01:47:19.560Z,20.95
2023-05-15T01:48:19.655Z,20.94
2023-05-15T01:49:19.732Z,20.93
2023-05-15T01:50:19.818Z,20.93
2023-05-15T01:51:19.885Z,20.92
2023-05-15T01:52:19.972Z,20.91
2023-05-15T01:53:20.040Z,20.91
2023-05-15T01:54:20.100Z,20.90
2023-05-15T01:55:20.185Z,20.90
2023-05-15T01:56:20.255Z,20.90
2023-05-15T01:57:20.328Z,20.90
2023-05-15T01:58:20.408Z,20.90
2023-05-15T01:59:20.481Z,20.90
2023-05-15T02:00:20.554Z,20.90
2023-05-15T02:01:21.609Z,20.90
2023-05-15T02:02:20.691Z,20.90
2023-05-15T02:03:20.971Z,20.90
2023-05-15T02:04:20.844Z,20.90
2023-05-15T02:05:20.926Z,20.89
2023-05-15T02:06:20.992Z,20.89
2023-05-15T02:07:21.086Z,20.89
2023-05-15T02:08:21.165Z,20.89
2023-05-15T02:09:21.199Z,20.88
2023-05-15T02:10:21.297Z,20.88
2023-05-15T02:11:21.378Z,20.88
2023-05-15T02:12:21.456Z,20.88
2023-05-15T02:13:21.555Z,20.88
2023-05-15T02:14:21.597Z,20.87
2023-05-15T02:15:21.685Z,20.87
2023-05-15T02:16:21.770Z,20.87
2023-05-15T02:17:21.849Z,20.87
2023-05-15T02:18:21.897Z,20.87
2023-05-15T02:19:21.960Z,20.87
2023-05-15T02:20:22.052Z,20.86
2023-05-15T02:21:22.143Z,20.86
2023-05-15T02:22:22.199Z,20.86
2023-05-15T02:23:22.276Z,20.85
2023-05-15T02:24:22.348Z,20.85
2023-05-15T02:25:22.459Z,20.85
2023-05-15T02:26:22.503Z,20.85
2023-05-15T02:27:22.599Z,20.85
2023-05-15T02:28:22.706Z,20.84
2023-05-15T02:29:22.744Z,20.84
2023-05-15T02:30:22.819Z,20.84
2023-05-15T02:31:24.511Z,20.84
2023-05-15T02:32:22.992Z,20.84
2023-05-15T02:33:23.053Z,20.84
2023-05-15T02:34:23.126Z,20.84
2023-05-15T02:35:23.300Z,20.84
2023-05-15T02:36:23.310Z,20.84
2023-05-15T02:37:23.382Z,20.83
2023-05-15T02:38:23.464Z,20.83
2023-05-15T02:39:23.602Z,20.82
2023-05-15T02:40:23.604Z,20.82
2023-05-15T02:41:23.699Z,20.82
2023-05-15T02:42:23.771Z,20.82
2023-05-15T02:43:23.845Z,20.82
2023-05-15T02:44:23.935Z,20.82
2023-05-15T02:45:24.186Z,20.82
2023-05-15T02:46:24.141Z,20.82
2023-05-15T02:47:24.215Z,20.82
2023-05-15T02:48:24.237Z,20.81
2023-05-15T02:49:24.318Z,20.81
2023-05-15T02:50:24.396Z,20.81
2023-05-15T02:51:24.483Z,20.80
2023-05-15T02:52:24.554Z,20.80
2023-05-15T02:53:24.618Z,20.80
2023-05-15T02:54:24.714Z,20.80
2023-05-15T02:55:24.899Z,20.80
2023-05-15T02:56:24.870Z,20.80
2023-05-15T02:57:24.945Z,20.80
2023-05-15T02:58:25.006Z,20.79
2023-05-15T02:59:25.137Z,20.79
2023-05-15T03:00:25.191Z,20.79
2023-05-15T03:01:25.353Z,20.79
2023-05-15T03:02:25.370Z,20.79
2023-05-15T03:03:25.482Z,20.79
2023-05-15T03:04:25.518Z,20.79
2023-05-15T03:05:25.754Z,20.79
2023-05-15T03:06:25.697Z,20.79
2023-05-15T03:07:25.828Z,20.79
2023-05-15T03:08:25.816Z,20.79
2023-05-15T03:09:25.904Z,20.79
2023-05-15T03:10:25.958Z,20.78
2023-05-15T03:11:26.036Z,20.79
2023-05-15T03:12:26.133Z,20.82
2023-05-15T03:13:26.221Z,20.86
2023-05-15T03:14:26.275Z,20.91
2023-05-15T03:15:26.629Z,20.95
2023-05-15T03:16:26.437Z,20.99
2023-05-15T03:17:26.523Z,21.01
2023-05-15T03:18:26.619Z,21.02
2023-05-15T03:19:26.648Z,21.03
2023-05-15T03:20:26.752Z,21.03
2023-05-15T03:21:26.828Z,21.03
2023-05-15T03:22:26.909Z,21.03
2023-05-15T03:23:26.967Z,21.03
2023-05-15T03:24:27.054Z,21.03
2023-05-15T03:25:27.476Z,21.04
2023-05-15T03:26:27.249Z,21.04
2023-05-15T03:27:27.268Z,21.04
2023-05-15T03:28:27.334Z,21.04
2023-05-15T03:29:27.431Z,21.05
2023-05-15T03:30:27.498Z,21.05
2023-05-15T03:31:27.648Z,21.05
2023-05-15T03:32:27.720Z,21.04
2023-05-15T03:33:27.764Z,21.04
2023-05-15T03:34:27.885Z,21.03
2023-05-15T03:35:27.917Z,21.03
2023-05-15T03:36:28.009Z,21.03
2023-05-15T03:37:28.070Z,21.03
2023-05-15T03:38:28.183Z,21.03
2023-05-15T03:39:28.232Z,21.03
2023-05-15T03:40:28.336Z,21.03
2023-05-15T03:41:28.404Z,21.03
2023-05-15T03:42:28.473Z,21.03
2023-05-15T03:43:28.536Z,21.03
2023-05-15T03:44:28.632Z,21.03
2023-05-15T03:45:29.004Z,21.03
2023-05-15T03:46:28.810Z,21.03
2023-05-15T03:47:28.857Z,21.04
2023-05-15T03:48:28.916Z,21.04
2023-05-15T03:49:28.988Z,21.05
2023-05-15T03:50:29.089Z,21.06
2023-05-15T03:51:29.147Z,21.07
2023-05-15T03:52:29.245Z,21.07
2023-05-15T03:53:29.306Z,21.07
2023-05-15T03:54:29.397Z,21.08
2023-05-15T03:55:29.467Z,21.08
2023-05-15T03:56:29.591Z,21.08
2023-05-15T03:57:29.629Z,21.09
2023-05-15T03:58:29.704Z,21.09
2023-05-15T03:59:29.780Z,21.10
2023-05-15T04:00:29.844Z,21.10
2023-05-15T04:01:29.944Z,21.10
2023-05-15T04:02:30.082Z,21.10
2023-05-15T04:03:30.105Z,21.10
2023-05-15T04:04:30.137Z,21.11
2023-05-15T04:05:30.254Z,21.11
2023-05-15T04:06:30.294Z,21.12
2023-05-15T04:07:30.363Z,21.12
2023-05-15T04:08:30.472Z,21.13
2023-05-15T04:09:30.501Z,21.13
2023-05-15T04:10:30.576Z,21.13
2023-05-15T04:11:30.662Z,21.14
2023-05-15T04:12:30.756Z,21.15
2023-05-15T04:13:30.839Z,21.16
2023-05-15T04:14:30.930Z,21.16
2023-05-15T04:15:30.987Z,21.16
2023-05-15T04:16:31.120Z,21.17
2023-05-15T04:17:31.157Z,21.18
2023-05-15T04:18:31.277Z,21.18
2023-05-15T04:19:31.305Z,21.19
2023-05-15T04:20:31.375Z,21.19
2023-05-15T04:21:31.467Z,21.19
2023-05-15T04:22:31.528Z,21.19
2023-05-15T04:23:31.606Z,21.19
2023-05-15T04:24:31.690Z,21.19
2023-05-15T04:25:31.757Z,21.20
2023-05-15T04:26:31.842Z,21.20
2023-05-15T04:27:31.917Z,21.21
2023-05-15T04:28:31.970Z,21.21
2023-05-15T04:29:32.103Z,21.22
2023-05-15T04:30:32.141Z,21.23
2023-05-15T04:31:32.318Z,21.24
2023-05-15T04:32:32.328Z,21.24
2023-05-15T04:33:32.389Z,21.25
2023-05-15T04:34:32.488Z,21.25
2023-05-15T04:35:32.564Z,21.26
2023-05-15T04:36:32.630Z,21.26
2023-05-15T04:37:32.706Z,21.26
2023-05-15T04:38:32.789Z,21.27
2023-05-15T04:39:32.862Z,21.27
2023-05-15T04:40:32.927Z,21.27
2023-05-15T04:41:33.033Z,21.28
2023-05-15T04:42:33.119Z,21.28
2023-05-15T04:43:33.189Z,21.29
2023-05-15T04:44:33.268Z,21.29
2023-05-15T04:45:33.341Z,21.30
2023-05-15T04:46:33.486Z,21.30
2023-05-15T04:47:33.515Z,21.31
2023-05-15T04:48:33.584Z,21.32
2023-05-15T04:49:33.653Z,21.33
2023-05-15T04:50:33.741Z,21.34
2023-05-15T04:51:33.806Z,21.35
2023-05-15T04:52:33.871Z,21.36
2023-05-15T04:53:33.943Z,21.37
2023-05-15T04:54:34.010Z,21.39
2023-05-15T04:55:34.123Z,21.40
2023-05-15T04:56:34.162Z,21.42
2023-05-15T04:57:34.263Z,21.43
2023-05-15T04:58:34.316Z,21.45
2023-05-15T04:59:34.441Z,21.46
2023-05-15T05:00:34.504Z,21.47
2023-05-15T05:01:34.668Z,21.48
2023-05-15T05:02:34.731Z,21.49
2023-05-15T05:03:34.807Z,21.49
2023-05-15T05:04:34.844Z,21.50
2023-05-15T05:05:34.924Z,21.50
2023-05-15T05:06:35.003Z,21.51
2023-05-15T05:07:35.098Z,21.51
2023-05-15T05:08:35.154Z,21.52
2023-05-15T05:09:35.220Z,21.53
2023-05-15T05:10:35.279Z,21.54
2023-05-15T05:11:35.381Z,21.54
2023-05-15T05:12:35.450Z,21.55
2023-05-15T05:13:35.519Z,21.56
2023-05-15T05:14:35.583Z,21.56
2023-05-15T05:15:35.674Z,21.57
2023-05-15T05:16:35.819Z,21.57
2023-05-15T05:17:35.853Z,21.58
2023-05-15T05:18:35.942Z,21.58
2023-05-15T05:19:35.976Z,21.59
2023-05-15T05:20:36.038Z,21.60
2023-05-15T05:21:36.139Z,21.61
2023-05-15T05:22:36.207Z,21.61
2023-05-15T05:23:36.284Z,21.62
2023-05-15T05:24:36.356Z,21.62
2023-05-15T05:25:36.422Z,21.63
2023-05-15T05:26:36.528Z,21.64
2023-05-15T05:27:36.583Z,21.65
2023-05-15T05:28:36.663Z,21.66
2023-05-15T05:29:36.735Z,21.66
2023-05-15T05:30:36.795Z,21.67
2023-05-15T05:31:36.886Z,21.68
2023-05-15T05:32:37.014Z,21.69
2023-05-15T05:33:37.042Z,21.70
2023-05-15T05:34:37.184Z,21.70
2023-05-15T05:35:37.213Z,21.71
2023-05-15T05:36:37.303Z,21.71
2023-05-15T05:37:38.872Z,21.72
2023-05-15T05:38:37.422Z,21.73
2023-05-15T05:39:37.492Z,21.74
2023-05-15T05:40:37.592Z,21.75
2023-05-15T05:41:37.663Z,21.75
2023-05-15T05:42:37.750Z,21.76
2023-05-15T05:43:37.826Z,21.77
2023-05-15T05:44:37.922Z,21.78
2023-05-15T05:45:38.002Z,21.79
2023-05-15T05:46:38.148Z,21.80
2023-05-15T05:47:38.252Z,21.81
2023-05-15T05:48:38.269Z,21.82
2023-05-15T05:49:38.311Z,21.82
2023-05-15T05:50:38.374Z,21.83
2023-05-15T05:51:38.434Z,21.84
2023-05-15T05:52:38.512Z,21.84
2023-05-15T05:53:39.588Z,21.85
2023-05-15T05:54:38.685Z,21.86
2023-05-15T05:55:38.761Z,21.87
2023-05-15T05:56:38.836Z,21.87
2023-05-15T05:57:38.915Z,21.88
2023-05-15T05:58:38.979Z,21.89
2023-05-15T05:59:39.048Z,21.89
2023-05-15T06:00:39.114Z,21.90
2023-05-15T06:01:39.189Z,21.91
2023-05-15T06:02:39.312Z,21.91
2023-05-15T06:03:39.385Z,21.91
2023-05-15T06:04:39.403Z,21.91
2023-05-15T06:05:39.472Z,21.91
2023-05-15T06:06:39.538Z,21.92
2023-05-15T06:07:39.641Z,21.93
2023-05-15T06:08:39.770Z,21.94
2023-05-15T06:09:39.861Z,21.94
2023-05-15T06:10:39.893Z,21.95
2023-05-15T06:11:39.952Z,21.95
2023-05-15T06:12:40.028Z,21.96
2023-05-15T06:13:40.127Z,21.97
2023-05-15T06:14:40.210Z,21.98
2023-05-15T06:15:40.260Z,21.99
2023-05-15T06:16:40.398Z,22.00
2023-05-15T06:17:40.480Z,22.01
2023-05-15T06:18:40.574Z,22.02
2023-05-15T06:19:40.604Z,22.03
2023-05-15T06:20:40.679Z,22.03
2023-05-15T06:21:40.744Z,22.04
2023-05-15T06:22:40.827Z,22.04
2023-05-15T06:23:40.916Z,22.04
2023-05-15T06:24:40.996Z,22.04
2023-05-15T06:25:41.098Z,22.04
2023-05-15T06:26:41.160Z,22.05
2023-05-15T06:27:41.229Z,22.05
2023-05-15T06:28:41.313Z,22.06
2023-05-15T06:29:41.398Z,22.06
2023-05-15T06:30:41.515Z,22.06
2023-05-15T06:31:41.556Z,22.07
2023-05-15T06:32:41.643Z,22.07
2023-05-15T06:33:41.700Z,22.07
2023-05-15T06:34:41.774Z,22.07
2023-05-15T06:35:41.845Z,22.07
2023-05-15T06:36:41.922Z,22.07
2023-05-15T06:37:41.995Z,22.08
2023-05-15T06:38:42.064Z,22.09
2023-05-15T06:39:42.160Z,22.09
2023-05-15T06:40:43.114Z,22.09
2023-05-15T06:41:42.344Z,22.10
2023-05-15T06:42:42.397Z,22.10
2023-05-15T06:43:42.466Z,22.09
2023-05-15T06:44:42.560Z,22.09
2023-05-15T06:45:42.625Z,22.09
2023-05-15T06:46:42.775Z,22.09
2023-05-15T06:47:42.813Z,22.10
2023-05-15T06:48:42.880Z,22.09
2023-05-15T06:49:42.980Z,22.09
2023-05-15T06:50:43.054Z,22.10
2023-05-15T06:51:43.122Z,22.10
2023-05-15T06:52:43.207Z,22.10
2023-05-15T06:53:43.296Z,22.09
2023-05-15T06:54:43.364Z,22.08
2023-05-15T06:55:43.447Z,22.08
2023-05-15T06:56:43.525Z,22.08
2023-05-15T06:57:43.597Z,22.07
2023-05-15T06:58:43.690Z,22.07
2023-05-15T06:59:43.752Z,22.08
2023-05-15T07:00:43.839Z,22.09
2023-05-15T07:01:43.926Z,22.10
2023-05-15T07:02:44.102Z,22.11
2023-05-15T07:03:44.050Z,22.08
2023-05-15T07:04:44.181Z,21.93
2023-05-15T07:05:44.249Z,21.70
2023-05-15T07:06:44.305Z,21.50
2023-05-15T07:07:44.351Z,21.34
2023-05-15T07:08:44.436Z,21.21
2023-05-15T07:09:44.525Z,21.10
2023-05-15T07:10:44.602Z,20.99
2023-05-15T07:11:45.219Z,20.89
2023-05-15T07:12:44.814Z,20.81
2023-05-15T07:13:44.881Z,20.77
2023-05-15T07:14:44.985Z,20.76
2023-05-15T07:15:45.053Z,20.75
2023-05-15T07:16:45.173Z,20.69
2023-05-15T07:17:45.259Z,20.64
2023-05-15T07:18:45.363Z,20.60
2023-05-15T07:19:45.366Z,20.57
2023-05-15T07:20:45.457Z,20.55
2023-05-15T07:21:45.565Z,20.53
2023-05-15T07:22:55.765Z,20.53
2023-05-15T07:23:45.706Z,20.54
2023-05-15T07:24:45.774Z,20.54
2023-05-15T07:25:46.173Z,20.54
2023-05-15T07:26:57.563Z,20.55
2023-05-15T07:27:46.019Z,20.59
2023-05-15T07:28:46.086Z,20.64
2023-05-15T07:29:46.150Z,20.69
2023-05-15T07:30:46.262Z,20.74
2023-05-15T07:31:46.375Z,20.76
2023-05-15T07:32:46.470Z,20.76
2023-05-15T07:33:46.485Z,20.80
2023-05-15T07:34:46.576Z,20.89
2023-05-15T07:35:46.652Z,21.00
2023-05-15T07:36:46.757Z,21.10
2023-05-15T07:37:46.841Z,21.20
2023-05-15T07:38:46.866Z,21.29
2023-05-15T07:39:46.954Z,21.36
2023-05-15T07:40:47.016Z,21.43
2023-05-15T07:41:47.114Z,21.49
2023-05-15T07:42:47.218Z,21.53
2023-05-15T07:43:47.240Z,21.57
2023-05-15T07:44:49.494Z,21.61
2023-05-15T07:45:47.507Z,21.64
2023-05-15T07:46:47.612Z,21.67
2023-05-15T07:47:47.687Z,21.69
2023-05-15T07:48:47.618Z,21.71
2023-05-15T07:49:47.688Z,21.74
2023-05-15T07:50:47.754Z,21.76
2023-05-15T07:51:47.837Z,21.78
2023-05-15T07:52:47.930Z,21.79
2023-05-15T07:53:48.002Z,21.81
2023-05-15T07:54:48.074Z,21.83
2023-05-15T07:55:48.152Z,21.84
2023-05-15T07:56:48.248Z,21.86
2023-05-15T07:57:53.514Z,21.87
2023-05-15T07:58:48.394Z,21.88
2023-05-15T07:59:48.451Z,21.89
2023-05-15T08:00:48.533Z,21.91
2023-05-15T08:01:48.601Z,21.92
2023-05-15T08:02:48.758Z,21.93
2023-05-15T08:03:48.784Z,21.95
2023-05-15T08:04:48.821Z,21.96
2023-05-15T08:05:48.900Z,21.97
2023-05-15T08:06:48.998Z,21.99
2023-05-15T08:07:55.051Z,22.00
2023-05-15T08:08:49.166Z,22.01
2023-05-15T08:09:49.249Z,22.01
2023-05-15T08:10:49.338Z,22.02
2023-05-15T08:11:49.388Z,22.02
2023-05-15T08:12:49.446Z,22.03
2023-05-15T08:13:49.686Z,22.03
2023-05-15T08:14:49.629Z,22.04
2023-05-15T08:15:49.966Z,22.05
2023-05-15T08:16:49.806Z,22.06
2023-05-15T08:17:49.961Z,22.08
2023-05-15T08:18:50.026Z,22.09
2023-05-15T08:19:50.063Z,22.10
2023-05-15T08:20:50.104Z,22.11
2023-05-15T08:21:50.203Z,22.11
2023-05-15T08:22:50.258Z,22.08
2023-05-15T08:23:53.572Z,22.02
2023-05-15T08:24:50.463Z,21.93
2023-05-15T08:25:50.489Z,21.85
2023-05-15T08:26:50.594Z,21.77
2023-05-15T08:27:50.715Z,21.73
2023-05-15T08:28:50.744Z,21.69
2023-05-15T08:29:50.816Z,21.64
2023-05-15T08:30:50.873Z,21.59
2023-05-15T08:31:51.029Z,21.55
2023-05-15T08:32:51.065Z,21.51
2023-05-15T08:33:51.128Z,21.49
2023-05-15T08:34:51.212Z,21.48
2023-05-15T08:35:51.338Z,21.46
2023-05-15T08:36:51.389Z,21.46
2023-05-15T08:37:51.450Z,21.48
2023-05-15T08:38:51.529Z,21.50
2023-05-15T08:39:51.629Z,21.50
2023-05-15T08:40:51.704Z,21.50
2023-05-15T08:41:51.759Z,21.44
2023-05-15T08:42:51.834Z,21.29
2023-05-15T08:43:51.911Z,21.12
2023-05-15T08:44:52.029Z,20.99
2023-05-15T08:45:52.084Z,20.84
2023-05-15T08:46:52.257Z,20.70
2023-05-15T08:47:52.286Z,20.65
2023-05-15T08:48:52.353Z,20.62
2023-05-15T08:49:52.406Z,20.58
2023-05-15T08:50:52.488Z,20.51
2023-05-15T08:51:52.562Z,20.46
2023-05-15T08:52:52.700Z,20.45
2023-05-15T08:53:52.782Z,20.46
2023-05-15T08:54:52.845Z,20.47
2023-05-15T08:55:52.919Z,20.52
2023-05-15T08:56:52.986Z,20.58
2023-05-15T08:57:53.109Z,20.65
2023-05-15T08:58:53.180Z,20.73
2023-05-15T08:59:53.256Z,20.80
2023-05-15T09:00:53.348Z,20.84
2023-05-15T09:01:53.442Z,20.87
2023-05-15T09:02:53.569Z,20.89
2023-05-15T09:03:53.597Z,20.91
2023-05-15T09:04:53.659Z,20.95
2023-05-15T09:05:53.755Z,20.97
2023-05-15T09:06:53.818Z,20.93
2023-05-15T09:07:53.912Z,20.78
2023-05-15T09:08:54.013Z,20.65
2023-05-15T09:09:54.089Z,20.55
2023-05-15T09:10:54.204Z,20.50
2023-05-15T09:11:54.254Z,20.48
2023-05-15T09:12:54.331Z,20.48
2023-05-15T09:13:54.417Z,20.53
2023-05-15T09:14:54.501Z,20.60
2023-05-15T09:15:54.598Z,20.67
2023-05-15T09:16:54.728Z,20.73
2023-05-15T09:17:54.854Z,20.76
2023-05-15T09:18:54.899Z,20.79
2023-05-15T09:19:54.952Z,20.86
2023-05-15T09:20:56.376Z,20.94
2023-05-15T09:21:55.143Z,20.99
2023-05-15T09:22:55.257Z,21.02
2023-05-15T09:23:55.288Z,21.03
2023-05-15T09:24:55.388Z,21.06
2023-05-15T09:25:55.483Z,21.07
2023-05-15T09:26:55.594Z,21.08
2023-05-15T09:27:55.682Z,21.10
2023-05-15T09:28:55.732Z,21.13
2023-05-15T09:29:55.800Z,21.15
2023-05-15T09:30:55.899Z,21.18
2023-05-15T09:31:56.062Z,21.17
2023-05-15T09:32:56.247Z,21.12
2023-05-15T09:33:56.136Z,21.08
2023-05-15T09:34:56.239Z,21.08
2023-05-15T09:35:56.320Z,21.09
2023-05-15T09:36:56.391Z,21.10
2023-05-15T09:37:56.452Z,21.13
2023-05-15T09:38:56.509Z,21.17
2023-05-15T09:39:56.636Z,21.21
2023-05-15T09:40:56.704Z,21.24
2023-05-15T09:41:56.755Z,21.23
2023-05-15T09:42:56.836Z,21.22
2023-05-15T09:43:56.948Z,21.21
2023-05-15T09:44:57.001Z,21.22
2023-05-15T09:45:57.161Z,21.22
2023-05-15T09:46:57.212Z,21.18
2023-05-15T09:47:57.310Z,21.15
2023-05-15T09:48:57.370Z,21.17
2023-05-15T09:49:57.496Z,21.22
2023-05-15T09:50:57.536Z,21.26
2023-05-15T09:51:57.636Z,21.30
2023-05-15T09:52:57.666Z,21.34
2023-05-15T09:53:57.710Z,21.37
2023-05-15T09:54:57.793Z,21.38
2023-05-15T09:55:57.862Z,21.39
2023-05-15T09:56:57.957Z,21.39
2023-05-15T09:57:58.072Z,21.37
2023-05-15T09:58:58.139Z,21.33
2023-05-15T09:59:58.239Z,21.31
2023-05-15T10:00:59.146Z,21.31
2023-05-15T10:01:58.438Z,21.32
2023-05-15T10:02:58.470Z,21.33
2023-05-15T10:03:58.522Z,21.34
2023-05-15T10:04:58.710Z,21.36
2023-05-15T10:05:58.718Z,21.38
2023-05-15T10:06:58.758Z,21.41
2023-05-15T10:07:58.848Z,21.41
2023-05-15T10:08:58.908Z,21.40
2023-05-15T10:09:58.975Z,21.39
2023-05-15T10:10:59.059Z,21.39
2023-05-15T10:11:59.128Z,21.41
2023-05-15T10:12:59.203Z,21.42
2023-05-15T10:13:59.302Z,21.38
2023-05-15T10:14:59.411Z,21.35
2023-05-15T10:15:59.510Z,21.33
2023-05-15T10:16:59.540Z,21.32
2023-05-15T10:17:59.699Z,21.33
2023-05-15T10:18:59.787Z,21.39
2023-05-15T10:19:59.797Z,21.45
2023-05-15T10:20:59.868Z,21.51
2023-05-15T10:21:59.969Z,21.57
2023-05-15T10:23:00.053Z,21.63
2023-05-15T10:24:00.162Z,21.67
2023-05-15T10:25:00.201Z,21.71
2023-05-15T10:26:00.286Z,21.74
2023-05-15T10:27:00.359Z,21.76
2023-05-15T10:28:00.439Z,21.77
2023-05-15T10:29:00.513Z,21.79
2023-05-15T10:30:00.619Z,21.80
2023-05-15T10:31:00.694Z,21.81
2023-05-15T10:32:00.739Z,21.83
2023-05-15T10:33:00.966Z,21.85
2023-05-15T10:34:01.089Z,21.86
2023-05-15T10:35:00.965Z,21.88
2023-05-15T10:36:01.044Z,21.89
2023-05-15T10:37:01.126Z,21.90
2023-05-15T10:38:01.195Z,21.91
2023-05-15T10:39:01.272Z,21.92
2023-05-15T10:40:01.360Z,21.93
2023-05-15T10:41:16.112Z,21.91
2023-05-15T10:42:01.505Z,21.90
2023-05-15T10:43:01.586Z,21.91
2023-05-15T10:44:01.667Z,21.94
2023-05-15T10:45:01.754Z,21.96
2023-05-15T10:46:01.836Z,21.96
2023-05-15T10:47:01.973Z,21.98
2023-05-15T10:48:02.151Z,22.00
2023-05-15T10:49:02.084Z,22.02
2023-05-15T10:50:02.190Z,22.02
2023-05-15T10:51:02.258Z,22.03
2023-05-15T10:52:02.333Z,22.04
2023-05-15T10:53:02.407Z,22.05
2023-05-15T10:54:02.502Z,22.06
2023-05-15T10:55:02.564Z,22.07
2023-05-15T10:56:02.665Z,22.07
2023-05-15T10:57:02.732Z,22.07
2023-05-15T10:58:02.822Z,22.07
2023-05-15T10:59:02.895Z,22.07
2023-05-15T11:00:02.992Z,22.09
2023-05-15T11:01:03.097Z,22.10
2023-05-15T11:02:03.124Z,22.11
2023-05-15T11:03:03.241Z,22.12
2023-05-15T11:04:03.318Z,22.11
2023-05-15T11:05:03.405Z,22.11
2023-05-15T11:06:03.487Z,22.11
2023-05-15T11:07:03.547Z,22.13
2023-05-15T11:08:03.646Z,22.14
2023-05-15T11:09:03.717Z,22.15
2023-05-15T11:10:04.385Z,22.14
2023-05-15T11:11:03.992Z,22.14
2023-05-15T11:12:03.991Z,22.14
2023-05-15T11:13:04.072Z,22.16
2023-05-15T11:14:04.151Z,22.17
2023-05-15T11:15:04.219Z,22.19
2023-05-15T11:16:04.300Z,22.21
2023-05-15T11:17:04.491Z,22.24
2023-05-15T11:18:04.568Z,22.24
2023-05-15T11:19:04.588Z,22.25
2023-05-15T11:20:04.638Z,22.25
2023-05-15T11:21:04.706Z,22.25
2023-05-15T11:22:04.814Z,22.26
2023-05-15T11:23:04.871Z,22.26
2023-05-15T11:24:04.993Z,22.27
2023-05-15T11:25:05.060Z,22.28
2023-05-15T11:26:05.115Z,22.31
2023-05-15T11:27:05.203Z,22.33
2023-05-15T11:28:05.298Z,22.34
2023-05-15T11:29:05.359Z,22.36
2023-05-15T11:30:05.442Z,22.37
2023-05-15T11:31:05.636Z,22.39
2023-05-15T11:32:05.607Z,22.41
2023-05-15T11:33:05.788Z,22.44
2023-05-15T11:34:05.764Z,22.46
2023-05-15T11:35:05.828Z,22.47
2023-05-15T11:36:05.903Z,22.47
2023-05-15T11:37:05.990Z,22.48
2023-05-15T11:38:06.061Z,22.49
2023-05-15T11:39:06.130Z,22.49
2023-05-15T11:40:06.219Z,22.49
2023-05-15T11:41:06.296Z,22.48
2023-05-15T11:42:06.405Z,22.48
2023-05-15T11:43:06.462Z,22.47
2023-05-15T11:44:06.518Z,22.48
2023-05-15T11:45:06.610Z,22.48
2023-05-15T11:46:06.716Z,22.46
2023-05-15T11:47:06.774Z,22.44
2023-05-15T11:48:06.915Z,22.42
2023-05-15T11:49:07.038Z,22.41
2023-05-15T11:50:06.992Z,22.39
2023-05-15T11:51:07.079Z,22.35
2023-05-15T11:52:07.156Z,22.30
2023-05-15T11:53:07.232Z,22.27
2023-05-15T11:54:08.114Z,22.25
2023-05-15T11:55:07.378Z,22.25
2023-05-15T11:56:07.472Z,22.26
2023-05-15T11:57:07.536Z,22.27
2023-05-15T11:58:07.647Z,22.22
2023-05-15T11:59:07.722Z,22.15
2023-05-15T12:00:07.796Z,22.08
2023-05-15T12:01:09.758Z,22.06
2023-05-15T12:02:07.948Z,22.06
2023-05-15T12:03:08.107Z,22.06
2023-05-15T12:04:08.239Z,22.08
2023-05-15T12:05:08.325Z,22.10
2023-05-15T12:06:08.276Z,22.13
2023-05-15T12:07:08.365Z,22.15
2023-05-15T12:08:08.464Z,22.18
2023-05-15T12:09:08.520Z,22.18
2023-05-15T12:10:08.608Z,22.18
2023-05-15T12:11:08.672Z,22.17
2023-05-15T12:12:08.750Z,22.16
2023-05-15T12:13:08.842Z,22.16
2023-05-15T12:14:08.908Z,22.18
2023-05-15T12:15:09.052Z,22.20
2023-05-15T12:16:09.131Z,22.22
2023-05-15T12:17:09.160Z,22.24
2023-05-15T12:18:09.909Z,22.26
2023-05-15T12:19:09.386Z,22.28
2023-05-15T12:20:09.492Z,22.28
2023-05-15T12:21:09.488Z,22.29
2023-05-15T12:22:09.577Z,22.31
2023-05-15T12:23:09.673Z,22.31
2023-05-15T12:24:09.790Z,22.32
2023-05-15T12:25:09.833Z,22.33
2023-05-15T12:26:09.891Z,22.33
2023-05-15T12:27:10.036Z,22.34
2023-05-15T12:28:10.060Z,22.35
2023-05-15T12:29:10.158Z,22.36
2023-05-15T12:30:10.235Z,22.37
2023-05-15T12:31:10.314Z,22.37
2023-05-15T12:32:10.687Z,22.38
2023-05-15T12:33:10.557Z,22.40
2023-05-15T12:34:10.557Z,22.43
2023-05-15T12:35:10.627Z,22.45
2023-05-15T12:36:10.682Z,22.47
2023-05-15T12:37:10.793Z,22.49
2023-05-15T12:38:10.896Z,22.50
2023-05-15T12:39:10.939Z,22.51
2023-05-15T12:40:11.081Z,22.52
2023-05-15T12:41:11.105Z,22.52
2023-05-15T12:42:11.185Z,22.51
2023-05-15T12:43:11.288Z,22.50
2023-05-15T12:44:11.368Z,22.50
2023-05-15T12:45:11.451Z,22.49
2023-05-15T12:46:11.557Z,22.50
2023-05-15T12:47:11.626Z,22.50
2023-05-15T12:48:11.781Z,22.50
2023-05-15T12:49:11.797Z,22.51
2023-05-15T12:50:11.902Z,22.52
2023-05-15T12:51:11.955Z,22.52
2023-05-15T12:52:12.128Z,22.51
2023-05-15T12:53:12.131Z,22.51